sensor_id;sensor_type;location;lat;lon;timestamp;P1;durP1;ratioP1;P2;durP2;ratioP2
29370;SDS011;16357;52.188;7.838;2023-02-19T00:01:09;12.20;;;8.93;;
29370;SDS011;16357;52.188;7.838;2023-02-19T00:03:41;14.32;;;8.90;;
29370;SDS011;16357;52.188;7.838;2023-02-19T00:06:12;12.70;;;8.57;;
29370;SDS011;16357;52.188;7.838;2023-02-19T00:08:38;11.75;;;8.27;;
29370;SDS011;16357;52.188;7.838;2023-02-19T00:11:06;14.10;;;9.00;;
29370;SDS011;16357;52.188;7.838;2023-02-19T00:13:40;13.00;;;8.68;;
29370;SDS011;16357;52.188;7.838;2023-02-19T00:16:12;11.65;;;8.50;;
29370;SDS011;16357;52.188;7.838;2023-02-19T00:18:43;11.57;;;8.20;;
29370;SDS011;16357;52.188;7.838;2023-02-19T00:21:10;12.05;;;7.90;;
29370;SDS011;16357;52.188;7.838;2023-02-19T00:23:38;10.60;;;8.30;;
29370;SDS011;16357;52.188;7.838;2023-02-19T00:26:05;10.02;;;7.95;;
29370;SDS011;16357;52.188;7.838;2023-02-19T00:28:43;13.18;;;7.88;;
29370;SDS011;16357;52.188;7.838;2023-02-19T00:33:40;9.85;;;8.00;;
29370;SDS011;16357;52.188;7.838;2023-02-19T00:36:07;11.88;;;8.23;;
29370;SDS011;16357;52.188;7.838;2023-02-19T00:38:37;11.52;;;8.13;;
29370;SDS011;16357;52.188;7.838;2023-02-19T00:41:04;9.50;;;8.00;;
29370;SDS011;16357;52.188;7.838;2023-02-19T00:46:17;11.15;;;7.93;;
29370;SDS011;16357;52.188;7.838;2023-02-19T00:48:45;11.02;;;8.50;;
29370;SDS011;16357;52.188;7.838;2023-02-19T00:51:12;9.57;;;7.85;;
29370;SDS011;16357;52.188;7.838;2023-02-19T00:53:39;10.95;;;8.20;;
29370;SDS011;16357;52.188;7.838;2023-02-19T00:56:06;12.43;;;8.38;;
29370;SDS011;16357;52.188;7.838;2023-02-19T00:58:33;11.18;;;8.75;;
29370;SDS011;16357;52.188;7.838;2023-02-19T01:01:00;13.65;;;8.65;;
29370;SDS011;16357;52.188;7.838;2023-02-19T01:03:26;11.70;;;7.95;;
29370;SDS011;16357;52.188;7.838;2023-02-19T01:05:53;10.63;;;8.40;;
29370;SDS011;16357;52.188;7.838;2023-02-19T01:08:19;11.00;;;8.38;;
29370;SDS011;16357;52.188;7.838;2023-02-19T01:10:46;12.15;;;8.80;;
29370;SDS011;16357;52.188;7.838;2023-02-19T01:13:13;12.82;;;9.27;;
29370;SDS011;16357;52.188;7.838;2023-02-19T01:15:39;12.45;;;9.25;;
29370;SDS011;16357;52.188;7.838;2023-02-19T01:18:06;12.65;;;9.07;;
29370;SDS011;16357;52.188;7.838;2023-02-19T01:20:33;13.23;;;10.05;;
29370;SDS011;16357;52.188;7.838;2023-02-19T01:22:59;13.50;;;10.10;;
29370;SDS011;16357;52.188;7.838;2023-02-19T01:25:26;12.68;;;10.10;;
29370;SDS011;16357;52.188;7.838;2023-02-19T01:27:52;13.05;;;9.88;;
29370;SDS011;16357;52.188;7.838;2023-02-19T01:30:18;13.63;;;9.95;;
29370;SDS011;16357;52.188;7.838;2023-02-19T01:32:45;14.15;;;10.60;;
29370;SDS011;16357;52.188;7.838;2023-02-19T01:35:11;14.27;;;10.55;;
29370;SDS011;16357;52.188;7.838;2023-02-19T01:37:37;15.43;;;10.55;;
29370;SDS011;16357;52.188;7.838;2023-02-19T01:40:04;14.00;;;10.73;;
29370;SDS011;16357;52.188;7.838;2023-02-19T01:42:31;15.98;;;11.10;;
29370;SDS011;16357;52.188;7.838;2023-02-19T01:45:20;14.30;;;10.95;;
29370;SDS011;16357;52.188;7.838;2023-02-19T01:47:48;14.00;;;10.68;;
29370;SDS011;16357;52.188;7.838;2023-02-19T01:50:19;15.13;;;11.07;;
29370;SDS011;16357;52.188;7.838;2023-02-19T01:52:46;14.43;;;11.00;;
29370;SDS011;16357;52.188;7.838;2023-02-19T01:55:13;14.15;;;11.13;;
29370;SDS011;16357;52.188;7.838;2023-02-19T01:57:41;15.73;;;10.98;;
29370;SDS011;16357;52.188;7.838;2023-02-19T02:00:12;18.85;;;11.55;;
29370;SDS011;16357;52.188;7.838;2023-02-19T02:02:41;16.35;;;11.07;;
29370;SDS011;16357;52.188;7.838;2023-02-19T02:05:12;13.02;;;10.43;;
29370;SDS011;16357;52.188;7.838;2023-02-19T02:08:09;16.10;;;11.45;;
29370;SDS011;16357;52.188;7.838;2023-02-19T02:10:56;13.68;;;10.90;;
29370;SDS011;16357;52.188;7.838;2023-02-19T02:13:22;18.92;;;11.45;;
29370;SDS011;16357;52.188;7.838;2023-02-19T02:15:58;16.67;;;11.68;;
29370;SDS011;16357;52.188;7.838;2023-02-19T02:18:41;18.42;;;11.98;;
29370;SDS011;16357;52.188;7.838;2023-02-19T02:32:29;18.33;;;12.68;;
29370;SDS011;16357;52.188;7.838;2023-02-19T02:35:04;19.02;;;12.80;;
29370;SDS011;16357;52.188;7.838;2023-02-19T02:37:36;20.92;;;14.10;;
29370;SDS011;16357;52.188;7.838;2023-02-19T02:40:04;20.67;;;13.80;;
29370;SDS011;16357;52.188;7.838;2023-02-19T02:42:33;21.63;;;13.35;;
29370;SDS011;16357;52.188;7.838;2023-02-19T02:45:14;22.65;;;13.50;;
29370;SDS011;16357;52.188;7.838;2023-02-19T02:48:15;22.00;;;14.32;;
29370;SDS011;16357;52.188;7.838;2023-02-19T02:54:20;21.83;;;13.65;;
29370;SDS011;16357;52.188;7.838;2023-02-19T02:57:09;21.95;;;13.15;;
29370;SDS011;16357;52.188;7.838;2023-02-19T02:59:39;22.23;;;13.25;;
29370;SDS011;16357;52.188;7.838;2023-02-19T03:02:15;20.15;;;13.45;;
29370;SDS011;16357;52.188;7.838;2023-02-19T03:05:02;18.95;;;12.88;;
29370;SDS011;16357;52.188;7.838;2023-02-19T03:10:34;19.98;;;13.13;;
29370;SDS011;16357;52.188;7.838;2023-02-19T03:13:34;22.40;;;12.77;;
29370;SDS011;16357;52.188;7.838;2023-02-19T03:16:25;21.42;;;12.77;;
29370;SDS011;16357;52.188;7.838;2023-02-19T03:19:15;18.90;;;12.85;;
29370;SDS011;16357;52.188;7.838;2023-02-19T03:21:47;22.45;;;13.32;;
29370;SDS011;16357;52.188;7.838;2023-02-19T03:24:17;24.20;;;13.55;;
29370;SDS011;16357;52.188;7.838;2023-02-19T03:27:06;16.83;;;11.07;;
29370;SDS011;16357;52.188;7.838;2023-02-19T03:29:35;19.45;;;11.73;;
29370;SDS011;16357;52.188;7.838;2023-02-19T03:32:06;15.05;;;10.90;;
29370;SDS011;16357;52.188;7.838;2023-02-19T03:34:37;16.08;;;10.20;;
29370;SDS011;16357;52.188;7.838;2023-02-19T03:37:13;15.40;;;10.27;;
29370;SDS011;16357;52.188;7.838;2023-02-19T03:39:43;14.68;;;9.82;;
29370;SDS011;16357;52.188;7.838;2023-02-19T03:53:05;16.75;;;10.20;;
29370;SDS011;16357;52.188;7.838;2023-02-19T03:55:45;14.10;;;9.52;;
29370;SDS011;16357;52.188;7.838;2023-02-19T03:58:22;11.25;;;9.27;;
29370;SDS011;16357;52.188;7.838;2023-02-19T04:01:00;16.08;;;9.18;;
29370;SDS011;16357;52.188;7.838;2023-02-19T04:03:37;12.30;;;8.40;;
29370;SDS011;16357;52.188;7.838;2023-02-19T04:06:10;11.10;;;8.35;;
29370;SDS011;16357;52.188;7.838;2023-02-19T04:08:41;15.05;;;8.57;;
29370;SDS011;16357;52.188;7.838;2023-02-19T04:11:11;12.25;;;7.60;;
29370;SDS011;16357;52.188;7.838;2023-02-19T04:13:52;15.00;;;8.30;;
29370;SDS011;16357;52.188;7.838;2023-02-19T04:16:25;12.77;;;7.47;;
29370;SDS011;16357;52.188;7.838;2023-02-19T04:18:55;12.93;;;7.47;;
29370;SDS011;16357;52.188;7.838;2023-02-19T04:21:27;13.05;;;7.35;;
29370;SDS011;16357;52.188;7.838;2023-02-19T04:23:58;14.32;;;7.88;;
29370;SDS011;16357;52.188;7.838;2023-02-19T04:26:28;14.65;;;6.65;;
29370;SDS011;16357;52.188;7.838;2023-02-19T04:28:56;10.95;;;7.07;;
29370;SDS011;16357;52.188;7.838;2023-02-19T04:31:22;12.70;;;6.70;;
29370;SDS011;16357;52.188;7.838;2023-02-19T04:33:50;13.65;;;7.13;;
29370;SDS011;16357;52.188;7.838;2023-02-19T04:36:17;10.27;;;6.82;;
29370;SDS011;16357;52.188;7.838;2023-02-19T04:38:43;11.68;;;6.95;;
29370;SDS011;16357;52.188;7.838;2023-02-19T04:41:10;12.70;;;6.82;;
29370;SDS011;16357;52.188;7.838;2023-02-19T04:43:37;12.02;;;7.28;;
29370;SDS011;16357;52.188;7.838;2023-02-19T04:46:03;10.02;;;6.65;;
29370;SDS011;16357;52.188;7.838;2023-02-19T04:48:30;13.52;;;7.25;;
29370;SDS011;16357;52.188;7.838;2023-02-19T04:50:56;10.30;;;6.53;;
29370;SDS011;16357;52.188;7.838;2023-02-19T04:53:22;14.70;;;7.25;;
29370;SDS011;16357;52.188;7.838;2023-02-19T04:55:49;12.70;;;7.20;;
29370;SDS011;16357;52.188;7.838;2023-02-19T04:58:18;11.85;;;7.75;;
29370;SDS011;16357;52.188;7.838;2023-02-19T05:00:45;11.40;;;7.00;;
29370;SDS011;16357;52.188;7.838;2023-02-19T05:03:11;10.07;;;6.40;;
29370;SDS011;16357;52.188;7.838;2023-02-19T05:05:38;10.35;;;7.30;;
29370;SDS011;16357;52.188;7.838;2023-02-19T05:08:04;11.02;;;6.78;;
29370;SDS011;16357;52.188;7.838;2023-02-19T05:10:30;11.35;;;7.20;;
29370;SDS011;16357;52.188;7.838;2023-02-19T05:12:58;11.70;;;6.93;;
29370;SDS011;16357;52.188;7.838;2023-02-19T05:15:24;9.13;;;6.13;;
29370;SDS011;16357;52.188;7.838;2023-02-19T05:17:51;9.07;;;6.13;;
29370;SDS011;16357;52.188;7.838;2023-02-19T05:20:17;9.75;;;6.30;;
29370;SDS011;16357;52.188;7.838;2023-02-19T05:22:44;10.52;;;6.30;;
29370;SDS011;16357;52.188;7.838;2023-02-19T05:25:10;9.55;;;5.95;;
29370;SDS011;16357;52.188;7.838;2023-02-19T05:27:36;7.38;;;5.47;;
29370;SDS011;16357;52.188;7.838;2023-02-19T05:30:03;9.75;;;6.20;;
29370;SDS011;16357;52.188;7.838;2023-02-19T05:32:29;8.75;;;5.75;;
29370;SDS011;16357;52.188;7.838;2023-02-19T05:34:56;9.32;;;5.25;;
29370;SDS011;16357;52.188;7.838;2023-02-19T05:37:22;10.63;;;6.40;;
29370;SDS011;16357;52.188;7.838;2023-02-19T05:39:49;9.35;;;5.97;;
29370;SDS011;16357;52.188;7.838;2023-02-19T05:42:15;8.70;;;5.57;;
29370;SDS011;16357;52.188;7.838;2023-02-19T05:44:41;10.77;;;5.93;;
29370;SDS011;16357;52.188;7.838;2023-02-19T05:47:08;10.43;;;5.65;;
29370;SDS011;16357;52.188;7.838;2023-02-19T05:49:34;9.52;;;5.82;;
29370;SDS011;16357;52.188;7.838;2023-02-19T05:52:01;8.73;;;5.80;;
29370;SDS011;16357;52.188;7.838;2023-02-19T05:54:28;10.82;;;6.05;;
29370;SDS011;16357;52.188;7.838;2023-02-19T05:56:54;8.57;;;5.50;;
29370;SDS011;16357;52.188;7.838;2023-02-19T05:59:22;8.45;;;5.50;;
29370;SDS011;16357;52.188;7.838;2023-02-19T06:01:50;10.27;;;6.38;;
29370;SDS011;16357;52.188;7.838;2023-02-19T06:04:18;9.82;;;5.60;;
29370;SDS011;16357;52.188;7.838;2023-02-19T06:06:45;9.80;;;5.82;;
29370;SDS011;16357;52.188;7.838;2023-02-19T06:09:12;9.68;;;5.90;;
29370;SDS011;16357;52.188;7.838;2023-02-19T06:11:39;10.68;;;6.03;;
29370;SDS011;16357;52.188;7.838;2023-02-19T06:14:05;8.25;;;5.60;;
29370;SDS011;16357;52.188;7.838;2023-02-19T06:16:32;10.57;;;6.45;;
29370;SDS011;16357;52.188;7.838;2023-02-19T06:19:03;12.35;;;6.18;;
29370;SDS011;16357;52.188;7.838;2023-02-19T06:21:30;10.43;;;5.95;;
29370;SDS011;16357;52.188;7.838;2023-02-19T06:23:56;11.43;;;6.50;;
29370;SDS011;16357;52.188;7.838;2023-02-19T06:26:23;11.48;;;6.13;;
29370;SDS011;16357;52.188;7.838;2023-02-19T06:28:50;10.32;;;5.80;;
29370;SDS011;16357;52.188;7.838;2023-02-19T06:31:20;11.57;;;6.43;;
29370;SDS011;16357;52.188;7.838;2023-02-19T06:33:48;12.48;;;6.40;;
29370;SDS011;16357;52.188;7.838;2023-02-19T06:36:16;11.45;;;6.32;;
29370;SDS011;16357;52.188;7.838;2023-02-19T06:38:44;4.63;;;3.55;;
29370;SDS011;16357;52.188;7.838;2023-02-19T06:41:10;2.90;;;2.60;;
29370;SDS011;16357;52.188;7.838;2023-02-19T06:43:38;2.70;;;2.00;;
29370;SDS011;16357;52.188;7.838;2023-02-19T06:46:05;1.95;;;1.70;;
29370;SDS011;16357;52.188;7.838;2023-02-19T06:48:33;1.95;;;1.80;;
29370;SDS011;16357;52.188;7.838;2023-02-19T06:51:00;1.67;;;1.58;;
29370;SDS011;16357;52.188;7.838;2023-02-19T06:53:27;1.73;;;1.63;;
29370;SDS011;16357;52.188;7.838;2023-02-19T06:55:57;3.20;;;1.98;;
29370;SDS011;16357;52.188;7.838;2023-02-19T06:58:25;1.98;;;1.80;;
29370;SDS011;16357;52.188;7.838;2023-02-19T07:00:52;1.67;;;1.58;;
29370;SDS011;16357;52.188;7.838;2023-02-19T07:03:19;2.20;;;1.85;;
29370;SDS011;16357;52.188;7.838;2023-02-19T07:05:45;1.83;;;1.67;;
29370;SDS011;16357;52.188;7.838;2023-02-19T07:08:12;1.80;;;1.65;;
29370;SDS011;16357;52.188;7.838;2023-02-19T07:10:38;1.80;;;1.60;;
29370;SDS011;16357;52.188;7.838;2023-02-19T07:13:05;1.60;;;1.50;;
29370;SDS011;16357;52.188;7.838;2023-02-19T07:15:31;1.90;;;1.63;;
29370;SDS011;16357;52.188;7.838;2023-02-19T07:17:58;2.67;;;1.70;;
29370;SDS011;16357;52.188;7.838;2023-02-19T07:20:24;1.83;;;1.73;;
29370;SDS011;16357;52.188;7.838;2023-02-19T07:22:51;1.70;;;1.60;;
29370;SDS011;16357;52.188;7.838;2023-02-19T07:25:17;2.05;;;1.40;;
29370;SDS011;16357;52.188;7.838;2023-02-19T07:27:44;1.73;;;1.63;;
29370;SDS011;16357;52.188;7.838;2023-02-19T07:30:10;2.00;;;1.80;;
29370;SDS011;16357;52.188;7.838;2023-02-19T07:32:39;2.13;;;1.50;;
29370;SDS011;16357;52.188;7.838;2023-02-19T07:35:06;2.08;;;1.60;;
29370;SDS011;16357;52.188;7.838;2023-02-19T07:37:33;2.17;;;1.92;;
29370;SDS011;16357;52.188;7.838;2023-02-19T07:39:59;1.80;;;1.70;;
29370;SDS011;16357;52.188;7.838;2023-02-19T07:42:26;2.67;;;2.05;;
29370;SDS011;16357;52.188;7.838;2023-02-19T07:44:52;2.42;;;1.77;;
29370;SDS011;16357;52.188;7.838;2023-02-19T07:47:19;5.50;;;3.90;;
29370;SDS011;16357;52.188;7.838;2023-02-19T07:49:45;5.50;;;3.47;;
29370;SDS011;16357;52.188;7.838;2023-02-19T07:52:11;4.95;;;3.47;;
29370;SDS011;16357;52.188;7.838;2023-02-19T07:54:38;6.20;;;3.45;;
29370;SDS011;16357;52.188;7.838;2023-02-19T07:57:04;7.78;;;5.07;;
29370;SDS011;16357;52.188;7.838;2023-02-19T07:59:31;3.83;;;3.13;;
29370;SDS011;16357;52.188;7.838;2023-02-19T08:01:57;4.03;;;2.95;;
29370;SDS011;16357;52.188;7.838;2023-02-19T08:04:42;2.95;;;2.40;;
29370;SDS011;16357;52.188;7.838;2023-02-19T08:07:08;2.60;;;2.30;;
29370;SDS011;16357;52.188;7.838;2023-02-19T08:09:35;3.00;;;2.50;;
29370;SDS011;16357;52.188;7.838;2023-02-19T08:12:01;2.75;;;2.30;;
29370;SDS011;16357;52.188;7.838;2023-02-19T08:14:46;3.60;;;2.53;;
29370;SDS011;16357;52.188;7.838;2023-02-19T08:17:12;3.03;;;2.70;;
29370;SDS011;16357;52.188;7.838;2023-02-19T08:19:39;4.40;;;3.60;;
29370;SDS011;16357;52.188;7.838;2023-02-19T08:22:05;4.13;;;3.20;;
29370;SDS011;16357;52.188;7.838;2023-02-19T08:24:32;3.47;;;2.60;;
29370;SDS011;16357;52.188;7.838;2023-02-19T08:26:58;3.40;;;2.53;;
29370;SDS011;16357;52.188;7.838;2023-02-19T08:29:25;4.90;;;3.28;;
29370;SDS011;16357;52.188;7.838;2023-02-19T08:31:52;3.53;;;2.83;;
29370;SDS011;16357;52.188;7.838;2023-02-19T08:34:18;4.30;;;3.40;;
29370;SDS011;16357;52.188;7.838;2023-02-19T08:36:45;3.97;;;3.20;;
29370;SDS011;16357;52.188;7.838;2023-02-19T08:39:11;4.53;;;3.17;;
29370;SDS011;16357;52.188;7.838;2023-02-19T08:41:37;4.47;;;3.30;;
29370;SDS011;16357;52.188;7.838;2023-02-19T08:44:04;4.70;;;3.70;;
29370;SDS011;16357;52.188;7.838;2023-02-19T08:46:30;5.38;;;3.72;;
29370;SDS011;16357;52.188;7.838;2023-02-19T08:48:59;4.65;;;3.58;;
29370;SDS011;16357;52.188;7.838;2023-02-19T08:51:25;4.05;;;2.95;;
29370;SDS011;16357;52.188;7.838;2023-02-19T08:53:52;3.45;;;2.15;;
29370;SDS011;16357;52.188;7.838;2023-02-19T08:56:18;4.68;;;3.15;;
29370;SDS011;16357;52.188;7.838;2023-02-19T08:58:45;3.58;;;2.72;;
29370;SDS011;16357;52.188;7.838;2023-02-19T09:01:17;4.72;;;3.70;;
29370;SDS011;16357;52.188;7.838;2023-02-19T09:03:44;3.25;;;2.80;;
29370;SDS011;16357;52.188;7.838;2023-02-19T09:06:14;3.42;;;2.70;;
29370;SDS011;16357;52.188;7.838;2023-02-19T09:08:42;4.35;;;3.25;;
29370;SDS011;16357;52.188;7.838;2023-02-19T09:11:09;3.00;;;2.60;;
29370;SDS011;16357;52.188;7.838;2023-02-19T09:13:36;4.03;;;2.53;;
29370;SDS011;16357;52.188;7.838;2023-02-19T09:16:03;3.45;;;2.90;;
29370;SDS011;16357;52.188;7.838;2023-02-19T09:18:30;4.20;;;3.50;;
29370;SDS011;16357;52.188;7.838;2023-02-19T09:21:00;4.95;;;4.32;;
29370;SDS011;16357;52.188;7.838;2023-02-19T09:23:31;4.28;;;3.53;;
29370;SDS011;16357;52.188;7.838;2023-02-19T09:25:58;5.07;;;4.25;;
29370;SDS011;16357;52.188;7.838;2023-02-19T09:28:26;7.25;;;4.80;;
29370;SDS011;16357;52.188;7.838;2023-02-19T09:30:53;5.45;;;4.25;;
29370;SDS011;16357;52.188;7.838;2023-02-19T09:33:19;5.53;;;4.10;;
29370;SDS011;16357;52.188;7.838;2023-02-19T09:35:46;5.30;;;4.03;;
29370;SDS011;16357;52.188;7.838;2023-02-19T09:38:12;5.88;;;4.30;;
29370;SDS011;16357;52.188;7.838;2023-02-19T09:40:39;6.97;;;4.40;;
29370;SDS011;16357;52.188;7.838;2023-02-19T09:43:06;6.35;;;4.28;;
29370;SDS011;16357;52.188;7.838;2023-02-19T09:45:37;6.15;;;4.50;;
29370;SDS011;16357;52.188;7.838;2023-02-19T09:48:04;5.50;;;4.35;;
29370;SDS011;16357;52.188;7.838;2023-02-19T09:50:36;6.25;;;4.85;;
29370;SDS011;16357;52.188;7.838;2023-02-19T09:53:12;7.78;;;5.22;;
29370;SDS011;16357;52.188;7.838;2023-02-19T09:55:42;6.65;;;5.60;;
29370;SDS011;16357;52.188;7.838;2023-02-19T10:00:50;8.15;;;5.93;;
29370;SDS011;16357;52.188;7.838;2023-02-19T10:20:35;8.43;;;5.95;;
29370;SDS011;16357;52.188;7.838;2023-02-19T10:23:03;8.38;;;5.97;;
29370;SDS011;16357;52.188;7.838;2023-02-19T10:25:32;8.63;;;6.68;;
29370;SDS011;16357;52.188;7.838;2023-02-19T10:28:00;8.80;;;6.43;;
29370;SDS011;16357;52.188;7.838;2023-02-19T10:30:28;11.50;;;7.28;;
29370;SDS011;16357;52.188;7.838;2023-02-19T10:33:01;9.25;;;6.38;;
29370;SDS011;16357;52.188;7.838;2023-02-19T10:35:34;11.13;;;7.00;;
29370;SDS011;16357;52.188;7.838;2023-02-19T10:38:03;9.95;;;7.15;;
29370;SDS011;16357;52.188;7.838;2023-02-19T10:40:31;9.10;;;6.35;;
29370;SDS011;16357;52.188;7.838;2023-02-19T10:43:00;9.70;;;7.03;;
29370;SDS011;16357;52.188;7.838;2023-02-19T10:45:40;8.35;;;6.32;;
29370;SDS011;16357;52.188;7.838;2023-02-19T10:48:22;8.73;;;6.20;;
29370;SDS011;16357;52.188;7.838;2023-02-19T10:50:51;10.15;;;6.20;;
29370;SDS011;16357;52.188;7.838;2023-02-19T10:53:23;8.27;;;6.03;;
29370;SDS011;16357;52.188;7.838;2023-02-19T10:56:07;8.13;;;5.97;;
29370;SDS011;16357;52.188;7.838;2023-02-19T10:58:40;9.82;;;6.30;;
29370;SDS011;16357;52.188;7.838;2023-02-19T11:03:37;7.90;;;6.28;;
29370;SDS011;16357;52.188;7.838;2023-02-19T11:06:04;8.05;;;6.00;;
29370;SDS011;16357;52.188;7.838;2023-02-19T11:08:43;8.32;;;6.18;;
29370;SDS011;16357;52.188;7.838;2023-02-19T11:11:33;8.07;;;5.65;;
29370;SDS011;16357;52.188;7.838;2023-02-19T11:14:03;7.80;;;6.00;;
29370;SDS011;16357;52.188;7.838;2023-02-19T11:16:41;8.20;;;6.15;;
29370;SDS011;16357;52.188;7.838;2023-02-19T11:19:33;8.30;;;6.07;;
29370;SDS011;16357;52.188;7.838;2023-02-19T11:24:51;7.80;;;5.53;;
29370;SDS011;16357;52.188;7.838;2023-02-19T11:27:23;6.13;;;4.80;;
29370;SDS011;16357;52.188;7.838;2023-02-19T11:29:50;7.70;;;5.30;;
29370;SDS011;16357;52.188;7.838;2023-02-19T11:32:21;6.03;;;4.50;;
29370;SDS011;16357;52.188;7.838;2023-02-19T11:34:50;6.32;;;4.75;;
29370;SDS011;16357;52.188;7.838;2023-02-19T11:37:18;6.43;;;4.32;;
29370;SDS011;16357;52.188;7.838;2023-02-19T11:39:47;6.05;;;4.15;;
29370;SDS011;16357;52.188;7.838;2023-02-19T11:50:50;6.68;;;4.75;;
29370;SDS011;16357;52.188;7.838;2023-02-19T11:53:31;5.53;;;4.28;;
29370;SDS011;16357;52.188;7.838;2023-02-19T12:09:25;5.57;;;3.53;;
29370;SDS011;16357;52.188;7.838;2023-02-19T12:12:17;4.97;;;3.72;;
29370;SDS011;16357;52.188;7.838;2023-02-19T12:15:00;5.80;;;3.72;;
29370;SDS011;16357;52.188;7.838;2023-02-19T12:17:55;5.13;;;3.50;;
29370;SDS011;16357;52.188;7.838;2023-02-19T12:29:32;5.10;;;3.78;;
29370;SDS011;16357;52.188;7.838;2023-02-19T12:43:39;3.33;;;2.80;;
29370;SDS011;16357;52.188;7.838;2023-02-19T12:46:14;3.33;;;2.90;;
29370;SDS011;16357;52.188;7.838;2023-02-19T12:48:53;4.50;;;3.00;;
29370;SDS011;16357;52.188;7.838;2023-02-19T12:59:41;4.20;;;2.92;;
29370;SDS011;16357;52.188;7.838;2023-02-19T13:02:18;4.18;;;3.28;;
29370;SDS011;16357;52.188;7.838;2023-02-19T13:07:29;3.72;;;2.63;;
29370;SDS011;16357;52.188;7.838;2023-02-19T13:10:11;4.07;;;2.90;;
29370;SDS011;16357;52.188;7.838;2023-02-19T13:12:42;5.50;;;3.13;;
29370;SDS011;16357;52.188;7.838;2023-02-19T13:17:56;3.85;;;2.80;;
29370;SDS011;16357;52.188;7.838;2023-02-19T13:23:08;3.30;;;2.20;;
29370;SDS011;16357;52.188;7.838;2023-02-19T13:31:58;4.68;;;2.75;;
29370;SDS011;16357;52.188;7.838;2023-02-19T13:37:33;6.65;;;2.70;;
29370;SDS011;16357;52.188;7.838;2023-02-19T13:40:02;3.85;;;2.83;;
29370;SDS011;16357;52.188;7.838;2023-02-19T13:42:32;4.45;;;2.88;;
29370;SDS011;16357;52.188;7.838;2023-02-19T13:45:02;3.83;;;2.30;;
29370;SDS011;16357;52.188;7.838;2023-02-19T13:50:27;3.28;;;2.58;;
29370;SDS011;16357;52.188;7.838;2023-02-19T13:52:57;3.13;;;2.63;;
29370;SDS011;16357;52.188;7.838;2023-02-19T14:01:04;3.73;;;2.77;;
29370;SDS011;16357;52.188;7.838;2023-02-19T14:06:03;5.07;;;2.47;;
29370;SDS011;16357;52.188;7.838;2023-02-19T14:14:26;3.95;;;2.70;;
29370;SDS011;16357;52.188;7.838;2023-02-19T14:16:56;3.45;;;2.78;;
29370;SDS011;16357;52.188;7.838;2023-02-19T14:30:30;5.22;;;3.60;;
29370;SDS011;16357;52.188;7.838;2023-02-19T14:32:59;3.53;;;3.20;;
29370;SDS011;16357;52.188;7.838;2023-02-19T14:35:39;6.60;;;3.50;;
29370;SDS011;16357;52.188;7.838;2023-02-19T14:38:13;3.15;;;2.80;;
29370;SDS011;16357;52.188;7.838;2023-02-19T14:40:45;3.20;;;2.90;;
29370;SDS011;16357;52.188;7.838;2023-02-19T14:43:14;4.07;;;3.08;;
29370;SDS011;16357;52.188;7.838;2023-02-19T14:45:46;4.03;;;3.30;;
29370;SDS011;16357;52.188;7.838;2023-02-19T14:48:18;3.80;;;3.25;;
29370;SDS011;16357;52.188;7.838;2023-02-19T14:50:49;4.57;;;3.35;;
29370;SDS011;16357;52.188;7.838;2023-02-19T14:53:20;6.72;;;4.47;;
29370;SDS011;16357;52.188;7.838;2023-02-19T14:55:49;5.60;;;4.03;;
29370;SDS011;16357;52.188;7.838;2023-02-19T14:58:20;6.82;;;3.97;;
29370;SDS011;16357;52.188;7.838;2023-02-19T15:00:51;9.13;;;4.78;;
29370;SDS011;16357;52.188;7.838;2023-02-19T15:05:55;5.32;;;3.75;;
29370;SDS011;16357;52.188;7.838;2023-02-19T15:08:36;4.97;;;2.88;;
29370;SDS011;16357;52.188;7.838;2023-02-19T15:11:16;5.05;;;2.67;;
29370;SDS011;16357;52.188;7.838;2023-02-19T15:13:47;4.22;;;2.55;;
29370;SDS011;16357;52.188;7.838;2023-02-19T15:16:20;3.03;;;2.70;;
29370;SDS011;16357;52.188;7.838;2023-02-19T15:18:57;3.17;;;2.55;;
29370;SDS011;16357;52.188;7.838;2023-02-19T15:21:30;3.25;;;2.60;;
29370;SDS011;16357;52.188;7.838;2023-02-19T15:24:00;3.30;;;2.25;;
29370;SDS011;16357;52.188;7.838;2023-02-19T15:29:10;3.05;;;2.50;;
29370;SDS011;16357;52.188;7.838;2023-02-19T15:31:53;3.00;;;2.35;;
29370;SDS011;16357;52.188;7.838;2023-02-19T15:34:26;3.08;;;2.50;;
29370;SDS011;16357;52.188;7.838;2023-02-19T15:36:55;3.28;;;2.45;;
29370;SDS011;16357;52.188;7.838;2023-02-19T15:39:25;3.08;;;2.42;;
29370;SDS011;16357;52.188;7.838;2023-02-19T15:42:15;3.00;;;2.42;;
29370;SDS011;16357;52.188;7.838;2023-02-19T15:44:50;3.70;;;3.10;;
29370;SDS011;16357;52.188;7.838;2023-02-19T15:47:26;4.20;;;3.03;;
29370;SDS011;16357;52.188;7.838;2023-02-19T15:50:08;3.97;;;3.33;;
29370;SDS011;16357;52.188;7.838;2023-02-19T15:57:57;3.28;;;2.95;;
29370;SDS011;16357;52.188;7.838;2023-02-19T16:00:47;4.53;;;3.40;;
29370;SDS011;16357;52.188;7.838;2023-02-19T16:03:20;4.22;;;2.58;;
29370;SDS011;16357;52.188;7.838;2023-02-19T16:06:01;3.85;;;3.00;;
29370;SDS011;16357;52.188;7.838;2023-02-19T16:08:29;4.07;;;3.33;;
29370;SDS011;16357;52.188;7.838;2023-02-19T16:11:01;3.05;;;2.75;;
29370;SDS011;16357;52.188;7.838;2023-02-19T16:13:30;4.22;;;2.67;;
29370;SDS011;16357;52.188;7.838;2023-02-19T16:18:34;3.40;;;3.08;;
29370;SDS011;16357;52.188;7.838;2023-02-19T16:21:02;3.53;;;3.22;;
29370;SDS011;16357;52.188;7.838;2023-02-19T16:23:34;3.97;;;2.47;;
29370;SDS011;16357;52.188;7.838;2023-02-19T16:26:06;3.13;;;2.40;;
29370;SDS011;16357;52.188;7.838;2023-02-19T16:28:35;3.55;;;2.38;;
29370;SDS011;16357;52.188;7.838;2023-02-19T16:31:07;3.70;;;2.70;;
29370;SDS011;16357;52.188;7.838;2023-02-19T16:38:57;3.40;;;2.60;;
29370;SDS011;16357;52.188;7.838;2023-02-19T16:41:33;4.72;;;3.22;;
29370;SDS011;16357;52.188;7.838;2023-02-19T16:46:48;9.02;;;6.00;;
29370;SDS011;16357;52.188;7.838;2023-02-19T16:49:22;8.45;;;4.35;;
29370;SDS011;16357;52.188;7.838;2023-02-19T16:51:49;5.65;;;3.20;;
29370;SDS011;16357;52.188;7.838;2023-02-19T16:54:16;6.32;;;3.15;;
29370;SDS011;16357;52.188;7.838;2023-02-19T16:56:42;5.95;;;3.25;;
29370;SDS011;16357;52.188;7.838;2023-02-19T16:59:09;3.92;;;3.05;;
29370;SDS011;16357;52.188;7.838;2023-02-19T17:01:35;6.40;;;3.45;;
29370;SDS011;16357;52.188;7.838;2023-02-19T17:04:03;4.95;;;2.88;;
29370;SDS011;16357;52.188;7.838;2023-02-19T17:06:33;4.50;;;3.15;;
29370;SDS011;16357;52.188;7.838;2023-02-19T17:09:00;4.20;;;3.17;;
29370;SDS011;16357;52.188;7.838;2023-02-19T17:11:26;5.65;;;3.45;;
29370;SDS011;16357;52.188;7.838;2023-02-19T17:13:52;5.75;;;3.70;;
29370;SDS011;16357;52.188;7.838;2023-02-19T17:16:20;6.28;;;4.25;;
29370;SDS011;16357;52.188;7.838;2023-02-19T17:18:49;4.13;;;3.50;;
29370;SDS011;16357;52.188;7.838;2023-02-19T17:21:18;4.07;;;3.10;;
29370;SDS011;16357;52.188;7.838;2023-02-19T17:23:47;3.75;;;2.60;;
29370;SDS011;16357;52.188;7.838;2023-02-19T17:26:15;3.88;;;2.72;;
29370;SDS011;16357;52.188;7.838;2023-02-19T17:28:44;5.45;;;2.53;;
29370;SDS011;16357;52.188;7.838;2023-02-19T17:31:11;3.65;;;2.47;;
29370;SDS011;16357;52.188;7.838;2023-02-19T17:33:39;3.03;;;2.25;;
29370;SDS011;16357;52.188;7.838;2023-02-19T17:36:09;4.38;;;2.13;;
29370;SDS011;16357;52.188;7.838;2023-02-19T17:38:43;5.80;;;2.80;;
29370;SDS011;16357;52.188;7.838;2023-02-19T17:41:09;6.13;;;3.20;;
29370;SDS011;16357;52.188;7.838;2023-02-19T17:43:36;6.05;;;3.55;;
29370;SDS011;16357;52.188;7.838;2023-02-19T17:46:02;24.77;;;20.23;;
29370;SDS011;16357;52.188;7.838;2023-02-19T17:48:29;11.77;;;9.75;;
29370;SDS011;16357;52.188;7.838;2023-02-19T17:50:56;8.38;;;6.22;;
29370;SDS011;16357;52.188;7.838;2023-02-19T17:53:22;6.45;;;4.78;;
29370;SDS011;16357;52.188;7.838;2023-02-19T17:55:48;5.10;;;4.00;;